Data for 05/11/2013

Time Sea-Level Adjusted Pressure Absolute Pressure Temperature Relative Humidity Dew Point   
(mb) (inHg) (mb) (inHg) (C) (F) (%) (C) (F)
00:05 1028 30.36 857 25.31 10.4 50.6 38 -3.3 26.1
00:10 1028 30.36 857 25.31 10.3 50.5 38 -3.2 26.2
00:15 1028 30.36 857 25.31 10.2 50.4 39 -3.2 26.3
00:20 1028 30.36 857 25.31 10.1 50.2 39 -3.3 26.1
00:25 1028 30.36 858 25.34 10.1 50.1 39 -3.3 26.1
00:30 1028 30.36 857 25.31 10.1 50.1 38 -3.4 25.8
00:35 1028 30.36 857 25.31 10 50 39 -3.3 26.1
00:40 1028 30.36 857 25.31 9.9 49.9 39 -3.4 25.9
00:45 1028 30.36 857 25.31 9.9 49.8 39 -3.4 25.9
00:50 1028 30.36 857 25.31 9.9 49.7 40 -3.2 26.2
00:55 1028 30.36 857 25.31 9.7 49.4 40 -3.3 26
01:00 1028 30.36 857 25.31 9.6 49.2 40 -3.5 25.8
01:05 1028 30.36 857 25.31 9.5 49.1 40 -3.4 25.9
01:10 1028 30.36 857 25.31 9.4 48.9 40 -3.4 25.8
01:15 1028 30.36 857 25.31 9.3 48.8 40 -3.6 25.6
01:20 1028 30.36 857 25.31 9.2 48.6 41 -3.5 25.7
01:25 1028 30.36 857 25.31 9.1 48.4 41 -3.5 25.7
01:30 1028 30.36 857 25.31 9.1 48.3 41 -3.6 25.5
01:35 1028 30.36 857 25.31 9 48.2 41 -3.6 25.5
01:40 1028 30.36 857 25.31 8.9 48 41 -3.7 25.3
01:45 1028 30.36 857 25.31 8.9 47.9 40 -3.8 25.1
01:50 1028 30.36 857 25.31 8.8 47.9 41 -3.7 25.3
01:55 1028 30.36 857 25.31 8.7 47.6 41 -3.7 25.4
02:00 1028 30.36 857 25.31 8.6 47.5 42 -3.7 25.4
02:05 1028 30.36 857 25.31 8.5 47.2 43 -3.4 25.9
02:10 1028 30.36 857 25.31 8.3 47 43 -3.5 25.8
02:15 1028 30.36 857 25.31 8.3 46.9 43 -3.4 25.8
02:20 1028 30.36 857 25.31 8.3 47 43 -3.6 25.6
02:25 1028 30.36 857 25.31 8.3 46.9 43 -3.7 25.4
02:30 1028 30.36 857 25.31 8.2 46.8 43 -3.7 25.3
02:35 1028 30.36 857 25.31 8.3 46.9 40 -4.4 24.1
02:40 1028 30.36 857 25.31 8.5 47.3 40 -4.4 24.1
02:45 1028 30.36 857 25.31 8.5 47.3 39 -4.5 23.9
02:50 1028 30.36 857 25.31 8.5 47.3 39 -4.5 23.9
02:55 1028 30.36 857 25.31 8.4 47.1 40 -4.5 23.9
03:00 1028 30.36 857 25.31 8.3 46.9 41 -4.3 24.2
03:05 1028 30.36 857 25.31 8.2 46.8 40 -4.6 23.7
03:10 1028 30.36 857 25.31 8.3 47 39 -4.8 23.3
03:15 1028 30.36 857 25.31 8.3 46.9 40 -4.7 23.6
03:20 1028 30.36 857 25.31 8.2 46.7 39 -4.8 23.4
03:25 1028 30.36 857 25.31 8.2 46.7 40 -4.8 23.4
03:30 1028 30.36 857 25.31 8 46.4 40 -4.7 23.6
03:35 1028 30.36 857 25.31 7.9 46.1 41 -4.7 23.5
03:40 1028 30.36 857 25.31 7.8 46 41 -4.6 23.7
03:45 1028 30.36 857 25.31 7.7 45.8 41 -4.6 23.7
03:50 1028 30.36 857 25.31 7.7 45.8 41 -4.9 23.2
03:55 1028 30.36 857 25.31 7.7 45.8 41 -4.9 23.2
04:00 1028 30.36 857 25.31 7.5 45.6 41 -4.8 23.3
04:05 1028 30.36 857 25.31 7.5 45.4 41 -4.8 23.3
04:10 1028 30.36 857 25.31 7.3 45.2 42 -4.7 23.5
04:15 1028 30.36 857 25.31 7.2 45 43 -4.5 24
04:20 1028 30.36 857 25.31 7.1 44.7 43 -4.6 23.7
04:25 1028 30.36 857 25.31 7.1 44.7 43 -4.6 23.7
04:30 1027 30.33 857 25.31 7.1 44.7 44 -4.3 24.2
04:35 1027 30.33 857 25.31 7 44.6 44 -4.5 23.9
04:40 1027 30.33 857 25.31 6.9 44.5 45 -4.1 24.5
04:45 1028 30.36 857 25.31 6.8 44.3 45 -4.3 24.2
04:50 1027 30.33 857 25.31 6.8 44.2 46 -4.1 24.6
04:55 1027 30.33 857 25.31 6.8 44.3 46 -4 24.8
05:00 1027 30.33 857 25.31 6.7 44.1 47 -3.7 25.3
05:05 1027 30.33 857 25.31 6.6 43.9 47 -3.8 25.1
05:10 1027 30.33 857 25.31 6.6 44 47 -3.9 25
05:15 1027 30.33 857 25.31 6.7 44 47 -3.9 25
05:20 1027 30.33 857 25.31 6.6 43.9 47 -4 24.8
05:25 1027 30.33 857 25.31 6.7 44 47 -3.9 25
05:30 1027 30.33 857 25.31 6.8 44.2 46 -3.9 24.9
05:35 1027 30.33 857 25.31 6.9 44.5 46 -3.8 25.2
05:40 1027 30.33 857 25.31 7 44.5 46 -3.8 25.2
05:45 1027 30.33 857 25.31 7 44.7 47 -3.6 25.5
05:50 1027 30.33 857 25.31 7.1 44.8 47 -3.5 25.6
05:55 1027 30.33 857 25.31 7.2 45 47 -3.4 25.9
06:00 1027 30.33 857 25.31 7.3 45.2 46 -3.5 25.8
06:05 1027 30.33 857 25.31 7.5 45.4 46 -3.4 25.8
06:10 1027 30.33 857 25.31 7.6 45.7 45 -3.5 25.7
06:15 1027 30.33 857 25.31 7.8 46.1 44 -3.5 25.7
06:20 1027 30.33 857 25.31 7.9 46.3 43 -3.7 25.3
06:25 1027 30.33 857 25.31 8.1 46.5 43 -3.6 25.5
06:30 1027 30.33 856 25.28 8.4 47.2 43 -3.5 25.7
06:35 1027 30.33 856 25.28 8.7 47.7 42 -3.4 25.8
06:40 1027 30.33 856 25.28 8.9 47.9 42 -3.2 26.2
06:45 1027 30.33 856 25.28 9.1 48.4 42 -3 26.7
06:50 1027 30.33 856 25.28 9.3 48.7 42 -2.9 26.7
06:55 1027 30.33 856 25.28 9.4 48.8 43 -2.6 27.3
07:00 1027 30.33 856 25.28 9.3 48.7 44 -2.3 27.9
07:05 1027 30.33 856 25.28 9 48.2 44 -2.5 27.6
07:10 1027 30.33 856 25.28 9.1 48.3 44 -2.4 27.8
07:15 1027 30.33 856 25.28 9.1 48.5 44 -2.4 27.7
07:20 1027 30.33 856 25.28 9.7 49.4 42 -2.5 27.5
07:25 1027 30.33 856 25.28 10.1 50.2 43 -2 28.4
07:30 1027 30.33 856 25.28 10.6 51 41 -2.1 28.2
07:35 1027 30.33 856 25.28 11.1 52.1 40 -1.8 28.7
07:40 1027 30.33 856 25.28 11.7 53.1 40 -1.5 29.2
07:45 1027 30.33 856 25.28 11.9 53.4 39 -1.7 29
07:50 1027 30.33 856 25.28 12.5 54.4 38 -1.5 29.4
07:55 1027 30.33 856 25.28 12.8 55 37 -1.4 29.4
08:00 1027 30.33 856 25.28 13.3 55.9 36 -1.4 29.4
08:05 1027 30.33 856 25.28 13.4 56.1 36 -1.3 29.6
08:10 1027 30.33 856 25.28 13.4 56.1 36 -1.3 29.7
08:15 1027 30.33 856 25.28 13.6 56.4 36 -1.3 29.6
08:20 1027 30.33 856 25.28 14.1 57.4 35 -1.1 30
08:25 1027 30.33 856 25.28 14.4 57.9 34 -1.2 29.8
08:30 1027 30.33 856 25.28 14.5 58 34 -1 30.3
08:35 1026 30.3 856 25.28 14.6 58.2 34 -1.1 30
08:40 1026 30.3 856 25.28 15.1 59.1 33 -1.2 29.9
08:45 1026 30.3 856 25.28 15.3 59.5 32 -1.2 29.9
08:50 1026 30.3 856 25.28 16 60.7 32 -0.7 30.7
08:55 1026 30.3 856 25.28 16.3 61.3 31 -0.6 30.9
09:00 1026 30.3 856 25.28 16.5 61.7 32 -0.1 31.8
09:05 1026 30.3 855 25.25 16.3 61.3 33 -0 32
09:10 1026 30.3 855 25.25 15.4 59.7 34 -0.3 31.4
09:15 1026 30.3 855 25.25 16.1 60.9 32 -0.4 31.3
09:20 1026 30.3 855 25.25 16.2 61.1 35 0.6 33.1
09:25 1026 30.3 855 25.25 15.3 59.5 34 -0.4 31.3
09:30 1026 30.3 855 25.25 15.3 59.6 35 0 32
09:35 1026 30.3 855 25.25 16 60.8 32 -0.6 30.9
09:40 1026 30.3 855 25.25 16.2 61.2 32 -0.6 31
09:45 1026 30.3 855 25.25 16.9 62.4 31 -0.3 31.4
09:50 1026 30.3 855 25.25 17.2 62.9 31 0.1 32.2
09:55 1026 30.3 855 25.25 17.6 63.6 30 0 32
10:00 1026 30.3 855 25.25 17.6 63.7 29 -0.3 31.5
10:05 1026 30.3 855 25.25 16.9 62.4 31 -0.3 31.5
10:10 1026 30.3 855 25.25 17.7 63.8 29 -0.6 30.9
10:15 1026 30.3 855 25.25 17.4 63.4 31 0.1 32.2
10:20 1026 30.3 855 25.25 17.4 63.3 32 0.5 32.9
10:25 1026 30.3 855 25.25 17.2 62.9 30 -0.4 31.4
10:30 1026 30.3 855 25.25 17.8 64 28 -0.7 30.7
10:35 1026 30.3 855 25.25 18.7 65.7 27 -0.4 31.2
10:40 1026 30.3 855 25.25 19.1 66.3 27 -0.3 31.5
10:45 1026 30.3 855 25.25 19.4 66.9 28 0.3 32.6
10:50 1026 30.3 855 25.25 18.7 65.6 28 0.1 32.2
10:55 1026 30.3 855 25.25 18.4 65.2 29 0.2 32.3
11:00 1026 30.3 855 25.25 18.1 64.6 27 -1 30.2
11:05 1026 30.3 855 25.25 18.3 64.9 27 -0.7 30.7
11:10 1026 30.3 855 25.25 19.2 66.5 27 -0.3 31.4
11:15 1026 30.3 855 25.25 19.2 66.6 28 0.3 32.5
11:20 1026 30.3 855 25.25 19.1 66.4 26 -0.5 31
11:25 1026 30.3 855 25.25 19 66.2 29 0.5 33
11:30 1026 30.3 855 25.25 18.9 66.1 28 -0 31.9
11:35 1026 30.3 855 25.25 19.6 67.3 27 0.2 32.4
11:40 1026 30.3 855 25.25 19.6 67.2 27 0.2 32.3
11:45 1025 30.27 855 25.25 19.5 67 27 0.1 32.2
11:50 1025 30.27 855 25.25 19.5 67 27 0.3 32.6
11:55 1025 30.27 855 25.25 19.9 67.8 26 -0.1 31.8
12:00 1025 30.27 854 25.22 20.3 68.6 26 0.2 32.4
12:05 1025 30.27 854 25.22 20.6 69 25 -0.1 31.8
12:10 1025 30.27 854 25.22 21 69.9 24 0.1 32.3
12:15 1025 30.27 854 25.22 21 69.8 26 0.9 33.6
12:20 1025 30.27 854 25.22 20.6 69 26 0.4 32.6
12:25 1025 30.27 854 25.22 20.8 69.4 24 -0.4 31.3
12:30 1025 30.27 854 25.22 21.2 70.1 24 0.1 32.1
12:35 1025 30.27 854 25.22 20.8 69.5 25 0.3 32.6
12:40 1025 30.27 854 25.22 20.9 69.7 25 0.2 32.4
12:45 1025 30.27 854 25.22 21 69.8 25 0.1 32.2
12:50 1025 30.27 854 25.22 20.7 69.3 25 0.4 32.7
12:55 1025 30.27 854 25.22 20.5 68.9 25 0 32.1
13:00 1025 30.27 854 25.22 21.6 70.9 23 -0.1 31.8
13:05 1025 30.27 854 25.22 21.3 70.3 25 0.4 32.7
13:10 1025 30.27 854 25.22 20.8 69.5 25 0.2 32.4
13:15 1025 30.27 854 25.22 21.6 70.9 23 -0.3 31.5
13:20 1025 30.27 854 25.22 22.8 73.1 22 -0 32
13:25 1025 30.27 854 25.22 23.1 73.5 21 -0.3 31.4
13:30 1025 30.27 854 25.22 23.4 74.1 21 0.1 32.2
13:35 1025 30.27 854 25.22 23.1 73.6 21 -0.3 31.5
13:40 1025 30.27 854 25.22 24 75.2 18 -1.3 29.6
13:45 1025 30.27 854 25.22 23.8 74.9 20 -0.5 31.1
13:50 1024 30.24 854 25.22 23.8 74.9 19 -1.3 29.7
13:55 1024 30.24 854 25.22 23.7 74.6 19 -1.3 29.7
14:00 1024 30.24 854 25.22 23.7 74.7 19 -0.9 30.3
14:05 1024 30.24 854 25.22 23.4 74.1 18 -2.3 27.9
14:10 1024 30.24 854 25.22 23.1 73.5 18 -2.4 27.7
14:15 1024 30.24 853 25.19 23.2 73.7 18 -2.6 27.3
14:20 1024 30.24 853 25.19 23.5 74.3 15 -4.1 24.6
14:25 1024 30.24 853 25.19 24.4 75.9 15 -3.3 26
14:30 1024 30.24 853 25.19 24.7 76.4 16 -2.4 27.6
14:35 1024 30.24 853 25.19 23.2 73.8 17 -3.1 26.4
14:40 1024 30.24 853 25.19 23 73.3 18 -2.6 27.3
14:45 1024 30.24 853 25.19 23.5 74.4 17 -2.9 26.8
14:50 1024 30.24 853 25.19 23 73.4 17 -2.8 26.9
14:55 1024 30.24 853 25.19 22.9 73.1 18 -2.7 27.1
15:00 1024 30.24 853 25.19 22.6 72.7 18 -2.6 27.3
15:05 1024 30.24 853 25.19 23.3 73.9 17 -3 26.5
15:10 1024 30.24 853 25.19 23.3 73.9 17 -3 26.7
15:15 1024 30.24 853 25.19 23.8 74.9 16 -3 26.6
15:20 1024 30.24 853 25.19 24.2 75.5 17 -2.4 27.6
15:25 1024 30.24 853 25.19 23.7 74.7 18 -2.1 28.2
15:30 1023 30.21 853 25.19 23.5 74.4 17 -3 26.5
15:35 1023 30.21 853 25.19 24.1 75.4 17 -1.9 28.6
15:40 1023 30.21 853 25.19 24.3 75.7 16 -2.8 27
15:45 1023 30.21 852 25.16 23.7 74.7 19 -1.1 30
15:50 1023 30.21 852 25.16 23.1 73.5 19 -2 28.5
15:55 1023 30.21 852 25.16 23.3 73.9 18 -2.5 27.5
16:00 1023 30.21 852 25.16 23.5 74.2 18 -2 28.3
16:05 1023 30.21 852 25.16 23.1 73.7 18 -2.2 28.1
16:10 1023 30.21 852 25.16 22.9 73.3 19 -2.1 28.3
16:15 1023 30.21 852 25.16 23.1 73.5 19 -1.8 28.7
16:20 1023 30.21 852 25.16 23.2 73.8 18 -2.5 27.6
16:25 1023 30.21 852 25.16 22.7 72.9 18 -2.5 27.5
16:30 1023 30.21 852 25.16 22.4 72.3 19 -2.5 27.5
16:35 1023 30.21 852 25.16 22.2 71.9 19 -2.2 28
16:40 1023 30.21 852 25.16 22.8 73.1 18 -2.3 27.9
16:45 1023 30.21 852 25.16 23.3 73.9 18 -2.4 27.7
16:50 1023 30.21 852 25.16 23.2 73.8 17 -2.8 26.9
16:55 1023 30.21 852 25.16 23 73.4 18 -2.7 27.1
17:00 1023 30.21 852 25.16 23 73.4 18 -2.6 27.4
17:05 1023 30.21 852 25.16 22.7 72.8 18 -2.6 27.3
17:10 1023 30.21 852 25.16 22.6 72.6 18 -2.5 27.6
17:15 1023 30.21 852 25.16 22.5 72.5 19 -2.1 28.3
17:20 1023 30.21 852 25.16 22.8 73.1 18 -2.2 28
17:25 1023 30.21 852 25.16 22.6 72.7 19 -1.7 29
17:30 1023 30.21 852 25.16 21.9 71.5 20 -1.7 29
17:35 1023 30.21 852 25.16 21.6 70.9 21 -1.3 29.7
17:40 1023 30.21 852 25.16 21.4 70.6 21 -1.5 29.3
17:45 1023 30.21 852 25.16 21.5 70.7 21 -1.3 29.7
17:50 1023 30.21 852 25.16 21.4 70.5 20 -2.2 28.1
17:55 1023 30.21 852 25.16 21.5 70.6 21 -1.8 28.7
18:00 1023 30.21 852 25.16 21.5 70.7 21 -1.4 29.5
18:05 1023 30.21 852 25.16 21.5 70.6 22 -0.9 30.4
18:10 1023 30.21 852 25.16 21.4 70.4 23 -0.4 31.3
18:15 1023 30.21 852 25.16 21.3 70.3 23 -0.8 30.6
18:20 1023 30.21 852 25.16 21.2 70.1 22 -1 30.2
18:25 1023 30.21 852 25.16 21.3 70.3 23 -0.8 30.5
18:30 1023 30.21 852 25.16 21.3 70.3 23 -0.7 30.7
18:35 1023 30.21 852 25.16 21.2 70.1 22 -1 30.3
18:40 1023 30.21 852 25.16 21.3 70.3 23 -0.7 30.7
18:45 1023 30.21 852 25.16 21.3 70.4 24 -0.1 31.9
18:50 1023 30.21 852 25.16 21.2 70.2 24 -0.3 31.5
18:55 1023 30.21 852 25.16 21 69.7 24 -0.2 31.6
19:00 1023 30.21 852 25.16 20.7 69.3 25 0.1 32.2
19:05 1022 30.18 852 25.16 20.4 68.8 25 0.1 32.1
19:10 1022 30.18 852 25.16 20.3 68.5 26 0.2 32.3
19:15 1022 30.18 852 25.16 20.2 68.4 26 0.3 32.5
19:20 1023 30.21 852 25.16 20.2 68.3 25 -0.1 31.8
19:25 1023 30.21 852 25.16 20.1 68.3 25 -0.2 31.7
19:30 1023 30.21 852 25.16 20 68.1 26 0.3 32.5
19:35 1023 30.21 852 25.16 19.9 67.8 27 0.5 32.8
19:40 1023 30.21 852 25.16 19.7 67.5 27 0.1 32.2
19:45 1023 30.21 852 25.16 19.6 67.2 27 0.5 32.8
19:50 1023 30.21 852 25.16 19.3 66.7 28 0.6 33.1
19:55 1023 30.21 852 25.16 19.1 66.4 28 0.5 32.8
20:00 1023 30.21 852 25.16 19.1 66.3 28 0.5 32.9
20:05 1023 30.21 852 25.16 19 66.1 28 0.4 32.8
20:10 1023 30.21 852 25.16 18.9 65.9 29 0.5 32.9
20:15 1023 30.21 852 25.16 18.6 65.5 29 0.3 32.5
20:20 1023 30.21 852 25.16 18.5 65.3 28 0 32
20:25 1023 30.21 852 25.16 18.5 65.3 30 0.5 33
20:30 1023 30.21 852 25.16 17.9 64.3 32 1 33.8
20:35 1023 30.21 852 25.16 17.4 63.4 31 0.4 32.7
20:40 1023 30.21 852 25.16 17.4 63.4 31 0.3 32.5
20:45 1023 30.21 852 25.16 17.4 63.3 31 0.1 32.1
20:50 1023 30.21 852 25.16 17.2 63 32 0.4 32.6
20:55 1023 30.21 852 25.16 17 62.5 32 0.1 32.1
21:00 1023 30.21 852 25.16 17.1 62.8 31 -0.2 31.7
21:05 1023 30.21 852 25.16 17.3 63.2 31 0 32.1
21:10 1023 30.21 852 25.16 17.4 63.3 30 -0.3 31.4
21:15 1023 30.21 852 25.16 17.4 63.3 30 -0.1 31.9
21:20 1023 30.21 852 25.16 17.3 63.2 31 0.1 32.2
21:25 1023 30.21 852 25.16 17.2 62.9 31 -0 32
21:30 1023 30.21 852 25.16 17 62.5 34 1.1 33.9
21:35 1023 30.21 852 25.16 16.6 61.9 34 0.6 33.1
21:40 1023 30.21 852 25.16 16.5 61.6 33 0.4 32.7
21:45 1023 30.21 852 25.16 16.3 61.4 34 0.5 32.9
21:50 1023 30.21 852 25.16 15.9 60.5 37 1.1 34
21:55 1023 30.21 852 25.16 15.4 59.7 38 1.1 33.9
22:00 1023 30.21 852 25.16 15.1 59.1 40 1.6 34.9
22:05 1023 30.21 852 25.16 14.8 58.6 37 0.3 32.6
22:10 1023 30.21 852 25.16 15.4 59.6 36 0.6 33.1
22:15 1023 30.21 852 25.16 15.3 59.5 37 0.6 33.1
22:20 1023 30.21 852 25.16 15.1 59.2 37 0.7 33.3
22:25 1023 30.21 852 25.16 14.9 58.8 38 0.9 33.7
22:30 1023 30.21 852 25.16 14.6 58.3 39 0.9 33.6
22:35 1023 30.21 852 25.16 14.5 58.1 39 0.8 33.4
22:40 1023 30.21 852 25.16 14.4 57.9 40 1 33.8
22:45 1023 30.21 852 25.16 14.2 57.5 40 0.9 33.7
22:50 1023 30.21 852 25.16 14.2 57.5 40 0.7 33.3
22:55 1023 30.21 852 25.16 14.2 57.6 40 0.8 33.4
23:00 1023 30.21 852 25.16 14.1 57.4 40 0.7 33.3
23:05 1023 30.21 852 25.16 14.1 57.3 40 0.6 33.2
23:10 1023 30.21 852 25.16 14 57.3 40 0.6 33.1
23:15 1023 30.21 852 25.16 14 57.2 39 0.5 32.9
23:20 1023 30.21 852 25.16 14.1 57.3 40 0.7 33.2
23:25 1023 30.21 852 25.16 13.8 56.9 41 0.9 33.6
23:30 1023 30.21 852 25.16 13.6 56.5 41 0.6 33.1
23:35 1023 30.21 852 25.16 13.6 56.5 41 0.8 33.4
23:40 1023 30.21 852 25.16 13.5 56.3 41 0.6 33
23:45 1023 30.21 852 25.16 13.6 56.5 40 0.5 32.8
23:50 1023 30.21 852 25.16 13.6 56.5 41 0.6 33.2
23:55 1023 30.21 853 25.19 13.5 56.2 41 0.4 32.7
24:00 1023 30.21 853 25.19 13.6 56.5 40 0.5 32.8